Time;durP1;ratioP1;P1;durP2;ratioP2;P2;SDS_P1;SDS_P2;PMS_P1;PMS_P2;Temp;Humidity;BMP_temperature;BMP_pressure;BME280_temperature;BME280_humidity;BME280_pressure;Samples;Min_cycle;Max_cycle;Signal;HPM_P1;HPM_P2
2023/11/19 00:00:14;;;;;;;2.90;1.30;;;;;;;-1.07;100.00;101167.19;104873;1254;61201;-53
2023/11/19 00:02:42;;;;;;;2.60;1.00;;;;;;;-1.08;100.00;101171.57;105695;1254;60549;-52
2023/11/19 00:05:11;;;;;;;1.30;0.80;;;;;;;-1.09;100.00;101163.80;104798;1255;72664;-55
2023/11/19 00:07:43;;;;;;;2.50;1.00;;;;;;;-1.08;100.00;101159.60;107163;1254;65718;-56
2023/11/19 00:10:12;;;;;;;1.40;0.90;;;;;;;-1.06;100.00;101157.19;105704;1256;72364;-54
2023/11/19 00:12:41;;;;;;;1.30;0.90;;;;;;;-1.04;100.00;101156.17;105210;1255;61307;-57
2023/11/19 00:15:11;;;;;;;2.20;0.90;;;;;;;-1.04;100.00;101151.08;104851;1253;60490;-54
2023/11/19 00:17:42;;;;;;;1.80;1.20;;;;;;;-1.04;100.00;101149.13;108976;1253;72632;-56
2023/11/19 00:20:13;;;;;;;2.70;1.10;;;;;;;-1.03;100.00;101149.85;105188;1253;67882;-55
2023/11/19 00:22:42;;;;;;;2.50;1.20;;;;;;;-1.01;100.00;101152.52;106925;1256;72769;-55
2023/11/19 00:25:12;;;;;;;2.20;1.30;;;;;;;-1.01;100.00;101148.29;104799;1253;60590;-54
2023/11/19 00:27:40;;;;;;;1.50;1.00;;;;;;;-1.01;100.00;101148.83;107122;1253;60550;-55
2023/11/19 00:30:10;;;;;;;2.40;1.20;;;;;;;-1.03;100.00;101156.56;104976;1253;73945;-56
2023/11/19 00:32:39;;;;;;;6.50;1.30;;;;;;;-1.04;100.00;101160.40;104716;1254;65980;-55
2023/11/19 00:35:10;;;;;;;1.90;1.30;;;;;;;-1.05;100.00;101156.84;104849;1257;74403;-53
2023/11/19 00:37:38;;;;;;;1.90;1.00;;;;;;;-1.07;100.00;101157.17;104787;1253;60388;-54
2023/11/19 00:40:06;;;;;;;1.40;0.90;;;;;;;-1.06;100.00;101159.14;104924;1253;60663;-56
2023/11/19 00:42:33;;;;;;;2.10;1.00;;;;;;;-1.06;100.00;101162.46;108967;1253;74617;-58
2023/11/19 00:45:01;;;;;;;8.60;3.60;;;;;;;-1.06;100.00;101161.06;109041;1253;67447;-56
2023/11/19 00:47:31;;;;;;;5.30;2.60;;;;;;;-1.05;100.00;101159.85;108914;1253;73132;-55
2023/11/19 00:49:58;;;;;;;2.40;0.90;;;;;;;-1.03;100.00;101158.48;109044;1254;58348;-53
2023/11/19 00:52:25;;;;;;;2.60;1.10;;;;;;;-1.01;100.00;101154.46;107777;1256;58817;-56
2023/11/19 00:54:53;;;;;;;3.70;1.50;;;;;;;-0.97;100.00;101149.46;108961;1254;72607;-55
2023/11/19 00:57:21;;;;;;;5.00;1.50;;;;;;;-0.95;100.00;101145.98;108864;1253;64841;-53
2023/11/19 00:59:48;;;;;;;6.90;2.50;;;;;;;-0.96;100.00;101142.24;107756;1259;71436;-53
2023/11/19 01:02:16;;;;;;;4.00;2.40;;;;;;;-0.97;100.00;101142.59;104840;1259;60442;-55
2023/11/19 01:04:43;;;;;;;6.60;3.00;;;;;;;-0.99;100.00;101139.71;108692;1255;59335;-55
2023/11/19 01:07:12;;;;;;;9.60;3.50;;;;;;;-1.01;100.00;101135.78;107288;1256;72653;-55
2023/11/19 01:09:44;;;;;;;9.00;4.10;;;;;;;-1.04;100.00;101135.58;104894;1259;65646;-55
2023/11/19 01:12:11;;;;;;;6.30;3.30;;;;;;;-1.06;100.00;101138.16;104851;1253;72745;-54
2023/11/19 01:14:38;;;;;;;9.60;3.30;;;;;;;-1.08;100.00;101134.94;104862;1256;60656;-57
2023/11/19 01:17:06;;;;;;;5.50;2.50;;;;;;;-1.09;100.00;101128.55;104790;1255;60299;-56
2023/11/19 01:19:34;;;;;;;6.00;2.50;;;;;;;-1.11;100.00;101123.79;105268;1256;74331;-56
2023/11/19 01:22:02;;;;;;;3.80;1.20;;;;;;;-1.11;100.00;101121.67;104715;1260;67374;-56
2023/11/19 01:24:31;;;;;;;8.80;2.70;;;;;;;-1.09;100.00;101120.27;105579;1258;71404;-55
2023/11/19 01:26:59;;;;;;;6.70;2.10;;;;;;;-1.09;100.00;101114.30;105327;1256;60540;-55
2023/11/19 01:29:27;;;;;;;1.90;1.00;;;;;;;-1.06;100.00;101111.37;104771;1253;60534;-56
2023/11/19 01:31:55;;;;;;;3.20;1.10;;;;;;;-1.04;100.00;101100.15;104914;1253;72653;-54
2023/11/19 01:34:22;;;;;;;2.60;1.30;;;;;;;-1.03;100.00;101107.02;104872;1259;67313;-55
2023/11/19 01:36:50;;;;;;;2.50;1.10;;;;;;;-1.04;100.00;101103.52;104761;1261;74072;-54
2023/11/19 01:39:19;;;;;;;1.80;1.10;;;;;;;-1.03;100.00;101103.17;104660;1258;60432;-55
2023/11/19 01:41:47;;;;;;;1.80;1.00;;;;;;;-1.05;100.00;101093.96;104903;1253;60450;-56
2023/11/19 01:44:14;;;;;;;1.50;1.00;;;;;;;-1.07;100.00;101097.27;104774;1254;72674;-54
2023/11/19 01:46:42;;;;;;;3.70;1.20;;;;;;;-1.08;100.00;101096.17;104909;1253;65437;-55
2023/11/19 01:49:11;;;;;;;4.40;1.70;;;;;;;-1.10;100.00;101093.84;104734;1253;71112;-54
2023/11/19 01:51:40;;;;;;;3.20;1.40;;;;;;;-1.13;100.00;101092.55;104751;1257;60358;-56
2023/11/19 01:54:07;;;;;;;3.70;1.60;;;;;;;-1.17;100.00;101093.54;108645;1261;58851;-56
2023/11/19 01:56:35;;;;;;;4.50;1.80;;;;;;;-1.18;100.00;101090.51;109025;1254;72944;-56
2023/11/19 01:59:03;;;;;;;4.70;1.70;;;;;;;-1.18;100.00;101088.94;108796;1253;65570;-56
2023/11/19 02:01:32;;;;;;;2.20;1.20;;;;;;;-1.14;100.00;101086.20;108973;1256;75031;-56
2023/11/19 02:04:00;;;;;;;3.20;1.30;;;;;;;-1.10;100.00;101086.27;108971;1258;60183;-55
2023/11/19 02:06:28;;;;;;;3.50;1.60;;;;;;;-1.06;100.00;101089.20;107509;1253;60319;-56
2023/11/19 02:08:56;;;;;;;5.90;2.10;;;;;;;-1.03;100.00;101088.38;104837;1253;72691;-56
2023/11/19 02:11:23;;;;;;;9.20;2.50;;;;;;;-1.01;100.00;101091.38;104917;1253;65898;-57
2023/11/19 02:13:51;;;;;;;6.40;2.40;;;;;;;-0.98;100.00;101095.33;104840;1259;71914;-57
2023/11/19 02:16:18;;;;;;;2.70;1.50;;;;;;;-0.98;100.00;101092.15;105022;1258;60547;-55
2023/11/19 02:18:46;;;;;;;7.10;1.20;;;;;;;-0.98;100.00;101091.63;104976;1254;61268;-55
2023/11/19 02:21:14;;;;;;;4.20;1.20;;;;;;;-1.01;100.00;101088.21;104822;1253;72663;-55
2023/11/19 02:23:42;;;;;;;2.80;1.20;;;;;;;-1.05;100.00;101083.77;104676;1253;65576;-57
2023/11/19 02:26:14;;;;;;;3.80;1.80;;;;;;;-1.08;100.00;101079.27;104848;1256;72632;-57
2023/11/19 02:28:43;;;;;;;6.30;1.40;;;;;;;-1.10;100.00;101069.89;104922;1261;61101;-56
2023/11/19 02:31:11;;;;;;;2.90;1.20;;;;;;;-1.12;100.00;101067.92;104692;1253;62622;-57
2023/11/19 02:33:39;;;;;;;5.20;1.70;;;;;;;-1.13;100.00;101073.73;104873;1259;74081;-56
2023/11/19 02:36:07;;;;;;;2.10;1.30;;;;;;;-1.17;100.00;101079.45;104959;1258;66940;-55
2023/11/19 02:38:35;;;;;;;2.50;1.20;;;;;;;-1.21;100.00;101082.02;105998;1256;73200;-54
2023/11/19 02:41:05;;;;;;;1.70;0.90;;;;;;;-1.26;100.00;101082.27;105867;1253;61789;-53
2023/11/19 02:43:33;;;;;;;3.80;1.00;;;;;;;-1.28;100.00;101075.89;105642;1253;60472;-56
2023/11/19 02:46:08;;;;;;;3.10;1.50;;;;;;;-1.28;100.00;101078.54;104798;1259;72614;-56
2023/11/19 02:48:39;;;;;;;2.30;1.30;;;;;;;-1.26;100.00;101072.58;104847;1253;67015;-56
2023/11/19 02:51:09;;;;;;;4.90;1.60;;;;;;;-1.23;100.00;101067.34;105378;1257;72542;-58
2023/11/19 02:53:37;;;;;;;2.20;1.20;;;;;;;-1.20;100.00;101067.77;104888;1258;62457;-56
2023/11/19 02:56:15;;;;;;;5.20;2.40;;;;;;;-1.18;100.00;101063.41;105552;1256;61222;-56
2023/11/19 02:58:44;;;;;;;3.00;1.20;;;;;;;-1.19;100.00;101064.25;105428;1253;73649;-56
2023/11/19 03:01:22;;;;;;;3.10;1.50;;;;;;;-1.22;100.00;101055.58;105846;1253;66809;-56
2023/11/19 03:03:57;;;;;;;1.90;1.40;;;;;;;-1.23;100.00;101045.70;104842;1257;72606;-56
2023/11/19 03:06:27;;;;;;;6.20;1.50;;;;;;;-1.23;100.00;101042.70;105282;1256;60511;-55
2023/11/19 03:08:55;;;;;;;2.20;1.30;;;;;;;-1.24;100.00;101046.18;105237;1256;60986;-56
2023/11/19 03:11:23;;;;;;;2.20;1.00;;;;;;;-1.26;100.00;101043.16;106436;1260;73014;-57
2023/11/19 03:13:50;;;;;;;2.00;1.60;;;;;;;-1.28;100.00;101037.66;104811;1256;65103;-55
2023/11/19 03:16:18;;;;;;;3.80;1.90;;;;;;;-1.31;100.00;101030.55;104772;1253;72099;-56
2023/11/19 03:18:45;;;;;;;2.70;1.90;;;;;;;-1.34;100.00;101027.67;103838;1259;3323969;-55
2023/11/19 03:22:21;;;;;;;6.40;3.00;;;;;;;-1.35;100.00;101104.09;101748;1292;603660;-56
2023/11/19 03:24:51;;;;;;;9.30;5.10;;;;;;;-1.35;100.00;101113.23;104122;1267;59334;-56
2023/11/19 03:27:18;;;;;;;6.30;3.10;;;;;;;-1.33;100.00;101091.97;103823;1266;59279;-54
2023/11/19 03:29:45;;;;;;;3.40;2.00;;;;;;;-1.33;100.00;101071.00;104009;1271;70337;-56
2023/11/19 03:32:13;;;;;;;2.90;1.40;;;;;;;-1.33;100.00;101065.56;104007;1269;67295;-56
2023/11/19 03:34:40;;;;;;;3.00;1.20;;;;;;;-1.34;100.00;101060.78;103960;1271;70455;-56
2023/11/19 03:37:08;;;;;;;2.30;1.10;;;;;;;-1.36;100.00;101049.83;105805;1263;3323179;-56
2023/11/19 03:39:37;;;;;;;2.90;1.00;;;;;;;-1.38;100.00;101050.32;108135;1263;59359;-55
2023/11/19 03:42:04;;;;;;;2.20;1.10;;;;;;;-1.39;100.00;101047.64;108354;1264;70968;-57
2023/11/19 03:44:32;;;;;;;1.10;0.80;;;;;;;-1.38;100.00;101048.72;108421;1263;67447;-56
2023/11/19 03:46:59;;;;;;;2.10;1.20;;;;;;;-1.38;100.00;101042.05;108402;1263;72489;-56
2023/11/19 03:49:26;;;;;;;3.50;1.30;;;;;;;-1.35;100.00;101040.16;105917;1265;59710;-54
2023/11/19 03:51:54;;;;;;;3.50;1.70;;;;;;;-1.32;100.00;101040.93;107081;1267;60651;-54
2023/11/19 03:54:23;;;;;;;4.10;1.70;;;;;;;-1.28;100.00;101038.19;108409;1264;73072;-55
2023/11/19 03:56:50;;;;;;;2.70;1.10;;;;;;;-1.25;100.00;101035.77;108746;1257;66918;-55
2023/11/19 03:59:20;;;;;;;2.00;1.00;;;;;;;-1.24;100.00;101034.56;108848;1257;71371;-55
2023/11/19 04:01:47;;;;;;;2.50;1.20;;;;;;;-1.24;100.00;101034.23;108725;1257;58040;-55
2023/11/19 04:04:15;;;;;;;5.40;1.40;;;;;;;-1.22;100.00;101037.61;108745;1257;58385;-56
2023/11/19 04:06:43;;;;;;;2.90;1.30;;;;;;;-1.21;100.00;101032.52;108762;1260;73098;-55
2023/11/19 04:09:10;;;;;;;1.60;0.90;;;;;;;-1.25;100.00;101031.02;107033;1262;66801;-56
2023/11/19 04:11:39;;;;;;;1.50;1.00;;;;;;;-1.30;100.00;101026.89;105302;1260;71094;-56
2023/11/19 04:14:07;;;;;;;3.50;1.30;;;;;;;-1.33;100.00;101023.12;104489;1259;59656;-56
2023/11/19 04:16:34;;;;;;;2.80;1.10;;;;;;;-1.34;100.00;101013.23;104376;1260;60178;-57
2023/11/19 04:19:02;;;;;;;3.50;1.10;;;;;;;-1.36;100.00;101010.92;104558;1260;73561;-55
2023/11/19 04:21:29;;;;;;;3.20;1.70;;;;;;;-1.39;100.00;101006.11;104589;1262;70234;-55
2023/11/19 04:23:58;;;;;;;3.10;1.40;;;;;;;-1.40;100.00;101002.20;104631;1262;72694;-56
2023/11/19 04:26:25;;;;;;;1.20;0.80;;;;;;;-1.42;100.00;101004.61;104422;1260;61819;-56
2023/11/19 04:28:52;;;;;;;1.70;1.00;;;;;;;-1.43;100.00;101000.36;104233;1260;60248;-55
2023/11/19 04:31:20;;;;;;;3.20;1.20;;;;;;;-1.42;100.00;100998.28;104462;1260;70865;-56
2023/11/19 04:33:47;;;;;;;1.50;0.70;;;;;;;-1.41;100.00;101001.48;104486;1261;67513;-56
2023/11/19 04:36:19;;;;;;;1.40;0.70;;;;;;;-1.40;100.00;101005.37;104445;1260;72436;-56
2023/11/19 04:38:46;;;;;;;1.40;0.70;;;;;;;-1.39;100.00;101006.09;105478;1260;59574;-56
2023/11/19 04:41:14;;;;;;;2.80;0.90;;;;;;;-1.39;100.00;100997.82;104695;1263;59702;-54
2023/11/19 04:43:41;;;;;;;1.20;0.80;;;;;;;-1.40;100.00;100995.16;104665;1260;71937;-56
2023/11/19 04:46:12;;;;;;;1.90;1.10;;;;;;;-1.40;100.00;100997.27;104610;1259;67117;-65
2023/11/19 04:48:39;;;;;;;4.00;1.10;;;;;;;-1.41;100.00;101001.98;104416;1260;71506;-56
2023/11/19 04:51:09;;;;;;;1.80;0.80;;;;;;;-1.43;100.00;100999.48;104961;1260;59747;-56
2023/11/19 04:53:36;;;;;;;2.50;0.90;;;;;;;-1.44;100.00;100997.89;104503;1259;59682;-56
2023/11/19 04:56:09;;;;;;;1.80;1.00;;;;;;;-1.45;100.00;100996.82;104691;1260;73689;-56
2023/11/19 04:58:37;;;;;;;1.60;1.00;;;;;;;-1.46;100.00;101002.44;104940;1264;69551;-56
2023/11/19 05:01:04;;;;;;;1.40;0.80;;;;;;;-1.48;100.00;101007.84;104820;1264;71450;-56
2023/11/19 05:03:32;;;;;;;1.60;0.90;;;;;;;-1.53;100.00;101001.60;104503;1260;59712;-57
2023/11/19 05:05:59;;;;;;;2.20;0.80;;;;;;;-1.56;100.00;100998.01;104613;1260;59670;-55
2023/11/19 05:08:27;;;;;;;1.10;0.70;;;;;;;-1.57;100.00;100987.80;104561;1265;73361;-53
2023/11/19 05:10:55;;;;;;;2.00;0.80;;;;;;;-1.55;100.00;100991.19;104569;1260;67477;-56
2023/11/19 05:13:22;;;;;;;1.60;0.80;;;;;;;-1.51;100.00;100997.57;104739;1260;71398;-54
2023/11/19 05:15:50;;;;;;;1.70;0.90;;;;;;;-1.50;100.00;100996.54;104578;1264;59683;-56
2023/11/19 05:18:18;;;;;;;2.30;0.90;;;;;;;-1.48;100.00;100994.99;104593;1260;60841;-56
2023/11/19 05:20:45;;;;;;;1.80;0.80;;;;;;;-1.47;100.00;100993.98;104829;1260;73077;-56
2023/11/19 05:23:13;;;;;;;2.00;0.90;;;;;;;-1.48;100.00;100992.55;104722;1260;65510;-57
2023/11/19 05:25:43;;;;;;;1.00;0.70;;;;;;;-1.49;100.00;100992.34;104625;1259;72738;-56
2023/11/19 05:28:11;;;;;;;1.70;0.70;;;;;;;-1.50;100.00;100988.61;104509;1260;59612;-54
2023/11/19 05:30:38;;;;;;;1.60;0.90;;;;;;;-1.53;100.00;100990.85;104550;1262;60097;-56
2023/11/19 05:33:06;;;;;;;1.80;1.10;;;;;;;-1.55;100.00;100990.83;104696;1263;71270;-56
2023/11/19 05:35:34;;;;;;;2.70;0.70;;;;;;;-1.57;100.00;100989.71;104705;1260;66854;-58
2023/11/19 05:38:02;;;;;;;2.80;0.90;;;;;;;-1.60;100.00;100981.39;104506;1261;72630;-56
2023/11/19 05:40:30;;;;;;;1.30;0.70;;;;;;;-1.65;100.00;100968.97;104546;1261;59750;-56
2023/11/19 05:42:57;;;;;;;1.50;0.60;;;;;;;-1.66;100.00;100969.98;104457;1265;59638;-58
2023/11/19 05:45:25;;;;;;;1.40;0.50;;;;;;;-1.68;100.00;100969.24;106255;1262;70748;-56
2023/11/19 05:47:52;;;;;;;0.90;0.50;;;;;;;-1.70;100.00;100964.63;104455;1265;65813;-56
2023/11/19 05:50:20;;;;;;;0.60;0.50;;;;;;;-1.72;100.00;100960.02;104433;1264;72758;-56
2023/11/19 05:52:47;;;;;;;0.70;0.50;;;;;;;-1.71;100.00;100956.17;104582;1259;60541;-56
2023/11/19 05:55:15;;;;;;;1.00;0.60;;;;;;;-1.70;100.00;100948.28;104805;1259;60117;-56
2023/11/19 05:57:43;;;;;;;0.90;0.60;;;;;;;-1.68;100.00;100943.71;104888;1259;71767;-56
2023/11/19 06:00:15;;;;;;;0.70;0.50;;;;;;;-1.67;100.00;100945.86;105131;1259;67423;-55
2023/11/19 06:02:43;;;;;;;4.10;0.60;;;;;;;-1.69;100.00;100941.23;105598;1256;74619;-57
2023/11/19 06:05:11;;;;;;;0.60;0.40;;;;;;;-1.71;100.00;100942.28;105095;1257;61087;-56
2023/11/19 06:07:41;;;;;;;0.50;0.40;;;;;;;-1.70;100.00;100942.81;107364;1259;59533;-56
2023/11/19 06:10:10;;;;;;;0.60;0.40;;;;;;;-1.71;100.00;100943.52;105031;1255;73416;-56
2023/11/19 06:12:38;;;;;;;0.70;0.50;;;;;;;-1.73;100.00;100943.29;105200;1255;65517;-56
2023/11/19 06:15:06;;;;;;;0.60;0.40;;;;;;;-1.77;100.00;100933.69;104727;1257;71454;-56
2023/11/19 06:17:34;;;;;;;0.70;0.50;;;;;;;-1.80;100.00;100926.79;104848;1259;62059;-54
2023/11/19 06:20:05;;;;;;;1.00;0.50;;;;;;;-1.79;100.00;100928.03;107400;1257;60351;-54
2023/11/19 06:22:32;;;;;;;1.10;0.60;;;;;;;-1.78;100.00;100934.72;104908;1259;73049;-55
2023/11/19 06:25:00;;;;;;;0.80;0.60;;;;;;;-1.78;100.00;100934.89;104887;1260;67020;-55
2023/11/19 06:27:27;;;;;;;0.80;0.50;;;;;;;-1.80;100.00;100925.90;104835;1260;71448;-56
2023/11/19 06:29:55;;;;;;;1.20;0.50;;;;;;;-1.81;100.00;100922.17;105222;1256;59736;-57
2023/11/19 06:32:22;;;;;;;1.10;0.50;;;;;;;-1.84;100.00;100917.02;105027;1256;60484;-57
2023/11/19 06:34:50;;;;;;;0.90;0.60;;;;;;;-1.84;100.00;100916.83;106093;1259;73101;-55
2023/11/19 06:37:17;;;;;;;0.80;0.60;;;;;;;-1.84;100.00;100919.46;104908;1259;66928;-56
2023/11/19 06:39:45;;;;;;;0.70;0.50;;;;;;;-1.84;100.00;100920.34;108682;1254;73604;-58
2023/11/19 06:42:12;;;;;;;1.70;0.70;;;;;;;-1.85;100.00;100916.63;109118;1256;60033;-57
2023/11/19 06:44:39;;;;;;;0.80;0.60;;;;;;;-1.86;100.00;100910.10;106789;1258;60089;-56
2023/11/19 06:47:07;;;;;;;2.00;0.80;;;;;;;-1.85;100.00;100908.54;104509;1258;72150;-56
2023/11/19 06:49:34;;;;;;;1.80;0.90;;;;;;;-1.84;100.00;100902.05;108747;1256;66022;-57
2023/11/19 06:52:02;;;;;;;0.90;0.60;;;;;;;-1.84;100.00;100902.77;108836;1259;73300;-58
2023/11/19 06:54:30;;;;;;;0.80;0.60;;;;;;;-1.84;100.00;100895.01;109000;1254;58379;-57
2023/11/19 06:56:58;;;;;;;1.40;0.70;;;;;;;-1.85;100.00;100897.80;108797;1255;60105;-57
2023/11/19 06:59:25;;;;;;;0.80;0.60;;;;;;;-1.83;100.00;100894.69;108843;1259;71748;-57
2023/11/19 07:01:52;;;;;;;1.00;0.70;;;;;;;-1.79;100.00;100889.31;108825;1255;66998;-58
2023/11/19 07:04:20;;;;;;;1.50;0.70;;;;;;;-1.77;100.00;100888.12;108835;1254;72749;-57
2023/11/19 07:06:52;;;;;;;1.10;0.70;;;;;;;-1.77;100.00;100883.54;105471;1256;59622;-57
2023/11/19 07:09:19;;;;;;;1.60;0.90;;;;;;;-1.77;100.00;100887.58;108703;1254;59193;-57
2023/11/19 07:11:47;;;;;;;1.00;0.70;;;;;;;-1.77;100.00;100889.69;108733;1255;71760;-58
2023/11/19 07:14:14;;;;;;;1.10;0.70;;;;;;;-1.77;100.00;100898.14;108749;1254;66780;-59
2023/11/19 07:16:42;;;;;;;0.90;0.60;;;;;;;-1.77;100.00;100891.10;107424;1257;71446;-57
2023/11/19 07:19:10;;;;;;;2.90;0.80;;;;;;;-1.78;100.00;100896.36;104591;1254;60556;-56
2023/11/19 07:21:43;;;;;;;1.20;0.60;;;;;;;-1.77;100.00;100885.81;104699;1260;59717;-56
2023/11/19 07:24:13;;;;;;;2.60;0.70;;;;;;;-1.75;100.00;100885.34;105597;1257;71283;-57
2023/11/19 07:26:46;;;;;;;0.90;0.70;;;;;;;-1.72;100.00;100885.58;104479;1256;67408;-56
2023/11/19 07:29:16;;;;;;;0.90;0.70;;;;;;;-1.73;100.00;100894.90;105116;1257;71391;-58
2023/11/19 07:31:56;;;;;;;2.90;0.90;;;;;;;-1.72;100.00;100907.94;104793;1260;60551;-55
2023/11/19 07:34:24;;;;;;;1.90;0.70;;;;;;;-1.75;100.00;100904.17;108026;1257;61043;-57
2023/11/19 07:36:52;;;;;;;1.00;0.70;;;;;;;-1.75;100.00;100898.20;105290;1257;71823;-51
2023/11/19 07:39:23;;;;;;;2.80;0.70;;;;;;;-1.72;100.00;100897.39;104853;1257;67783;-56
2023/11/19 07:41:51;;;;;;;2.20;1.00;;;;;;;-1.69;100.00;100900.23;104775;1260;72483;-56
2023/11/19 07:44:21;;;;;;;1.60;1.00;;;;;;;-1.67;100.00;100897.98;105110;1257;61171;-56
2023/11/19 07:46:48;;;;;;;1.20;0.70;;;;;;;-1.65;100.00;100899.80;105178;1259;60447;-57
2023/11/19 07:49:16;;;;;;;0.80;0.60;;;;;;;-1.63;100.00;100895.96;104980;1259;74358;-57
2023/11/19 07:51:44;;;;;;;1.40;0.50;;;;;;;-1.62;100.00;100900.04;106127;1254;67026;-55
2023/11/19 07:54:11;;;;;;;0.80;0.50;;;;;;;-1.62;100.00;100894.04;104677;1259;72730;-55
2023/11/19 07:56:38;;;;;;;0.90;0.60;;;;;;;-1.62;100.00;100894.41;104976;1257;60500;-55
2023/11/19 07:59:06;;;;;;;1.40;0.80;;;;;;;-1.61;100.00;100894.05;104923;1261;60552;-55
2023/11/19 08:01:34;;;;;;;3.20;1.20;;;;;;;-1.62;100.00;100897.05;104941;1257;72830;-56
2023/11/19 08:04:01;;;;;;;1.40;0.80;;;;;;;-1.62;100.00;100893.70;104766;1257;65718;-57
2023/11/19 08:06:30;;;;;;;1.10;0.70;;;;;;;-1.61;100.00;100893.16;104882;1257;73020;-56
2023/11/19 08:08:57;;;;;;;1.30;0.70;;;;;;;-1.64;100.00;100886.80;105001;1259;60364;-55
2023/11/19 08:11:24;;;;;;;1.40;0.70;;;;;;;-1.66;100.00;100885.35;104696;1256;60520;-56
2023/11/19 08:13:52;;;;;;;0.80;0.60;;;;;;;-1.66;100.00;100887.81;104843;1259;74287;-55
2023/11/19 08:16:19;;;;;;;1.00;0.50;;;;;;;-1.65;100.00;100876.73;104812;1260;64715;-56
2023/11/19 08:18:47;;;;;;;0.90;0.50;;;;;;;-1.65;100.00;100875.52;104743;1259;73119;-55
2023/11/19 08:21:14;;;;;;;1.30;1.00;;;;;;;-1.63;100.00;100867.28;104556;1257;60623;-54
2023/11/19 08:23:42;;;;;;;1.40;0.70;;;;;;;-1.63;100.00;100860.08;104782;1259;60448;-55
2023/11/19 08:26:09;;;;;;;1.70;0.70;;;;;;;-1.60;100.00;100856.24;104581;1260;74284;-56
2023/11/19 08:28:37;;;;;;;1.50;0.90;;;;;;;-1.59;100.00;100854.15;104756;1261;69282;-55
2023/11/19 08:31:05;;;;;;;1.70;1.20;;;;;;;-1.60;100.00;100854.47;105134;1260;72695;-54
2023/11/19 08:33:32;;;;;;;1.20;0.80;;;;;;;-1.58;100.00;100850.81;104723;1258;60544;-55
2023/11/19 08:36:00;;;;;;;2.20;0.90;;;;;;;-1.54;100.00;100845.78;104886;1256;60562;-55
2023/11/19 08:38:28;;;;;;;1.10;0.80;;;;;;;-1.51;100.00;100841.25;105004;1259;74303;-54
2023/11/19 08:40:59;;;;;;;0.60;0.50;;;;;;;-1.47;100.00;100846.09;104911;1257;67499;-55
2023/11/19 08:43:27;;;;;;;0.50;0.40;;;;;;;-1.44;100.00;100844.89;104434;1259;73074;-54
2023/11/19 08:45:55;;;;;;;1.90;0.50;;;;;;;-1.43;100.00;100835.05;104797;1258;60549;-55
2023/11/19 08:48:22;;;;;;;1.10;0.60;;;;;;;-1.42;100.00;100833.14;104358;1260;60537;-54
2023/11/19 08:50:50;;;;;;;0.80;0.60;;;;;;;-1.41;100.00;100821.17;105139;1254;74353;-54
2023/11/19 08:53:17;;;;;;;0.60;0.50;;;;;;;-1.40;100.00;100824.20;104717;1260;67384;-54
2023/11/19 08:55:45;;;;;;;1.60;1.20;;;;;;;-1.38;100.00;100821.61;104705;1259;73153;-54
2023/11/19 08:58:12;;;;;;;1.30;0.70;;;;;;;-1.33;100.00;100825.89;106018;1259;60536;-54
2023/11/19 09:00:40;;;;;;;1.50;0.60;;;;;;;-1.30;100.00;100823.48;104748;1257;60474;-54
2023/11/19 09:03:09;;;;;;;0.80;0.70;;;;;;;-1.29;100.00;100819.98;104769;1263;73879;-53
2023/11/19 09:05:38;;;;;;;1.70;0.70;;;;;;;-1.26;100.00;100825.48;105124;1259;66662;-53
2023/11/19 09:08:06;;;;;;;3.20;1.10;;;;;;;-1.28;100.00;100824.76;104804;1258;72665;-54
2023/11/19 09:10:34;;;;;;;1.30;0.90;;;;;;;-1.30;100.00;100821.89;104787;1260;60495;-54
2023/11/19 09:13:01;;;;;;;2.10;1.00;;;;;;;-1.31;100.00;100812.73;104965;1256;60526;-52
2023/11/19 09:15:28;;;;;;;1.30;0.70;;;;;;;-1.29;100.00;100810.13;104949;1259;73930;-53
2023/11/19 09:17:56;;;;;;;1.00;0.70;;;;;;;-1.24;100.00;100811.61;104812;1260;66489;-53
2023/11/19 09:20:23;;;;;;;3.00;0.80;;;;;;;-1.18;100.00;100812.05;104776;1260;72727;-53
2023/11/19 09:22:51;;;;;;;1.80;0.70;;;;;;;-1.12;100.00;100816.55;104698;1263;60552;-52
2023/11/19 09:25:19;;;;;;;1.80;1.10;;;;;;;-1.08;100.00;100815.73;104699;1260;60553;-53
2023/11/19 09:27:46;;;;;;;3.10;1.30;;;;;;;-1.03;100.00;100809.66;104953;1259;72613;-53
2023/11/19 09:30:15;;;;;;;1.70;0.90;;;;;;;-0.98;100.00;100806.53;106064;1259;65691;-52
2023/11/19 09:32:42;;;;;;;1.30;0.70;;;;;;;-0.94;100.00;100808.20;104778;1263;71742;-53
2023/11/19 09:35:13;;;;;;;1.70;0.50;;;;;;;-0.91;100.00;100813.87;104966;1263;60567;-53
2023/11/19 09:37:40;;;;;;;2.40;1.00;;;;;;;-0.90;100.00;100821.11;104918;1256;60550;-53
2023/11/19 09:40:11;;;;;;;3.30;1.20;;;;;;;-0.88;100.00;100823.45;104834;1254;72637;-53
2023/11/19 09:42:47;;;;;;;0.60;0.40;;;;;;;-0.85;100.00;100818.20;104783;1260;66998;-53
2023/11/19 09:45:16;;;;;;;3.60;0.50;;;;;;;-0.84;100.00;100818.73;108851;1254;73216;-55
2023/11/19 09:47:45;;;;;;;1.60;0.40;;;;;;;-0.82;100.00;100823.52;108973;1254;58783;-54
2023/11/19 09:50:18;;;;;;;0.80;0.50;;;;;;;-0.80;100.00;100827.09;108883;1254;60501;-54
2023/11/19 09:52:46;;;;;;;2.30;0.80;;;;;;;-0.79;100.00;100827.11;108855;1256;73853;-53
2023/11/19 09:55:14;;;;;;;1.00;0.70;;;;;;;-0.79;100.00;100826.06;108932;1259;66940;-54
2023/11/19 09:57:41;;;;;;;0.90;0.60;;;;;;;-0.78;100.00;100832.23;109088;1255;72744;-55
2023/11/19 10:00:11;;;;;;;1.40;0.60;;;;;;;-0.76;100.00;100837.88;108999;1254;60149;-54
2023/11/19 10:02:38;;;;;;;1.00;0.50;;;;;;;-0.74;100.00;100834.73;105174;1260;60571;-53
2023/11/19 10:05:06;;;;;;;0.90;0.60;;;;;;;-0.75;100.00;100827.50;104772;1259;72907;-55
2023/11/19 10:07:34;;;;;;;1.10;0.60;;;;;;;-0.76;100.00;100828.02;104644;1259;66790;-53
2023/11/19 10:10:05;;;;;;;0.90;0.60;;;;;;;-0.78;100.00;100822.89;104671;1257;71435;-54
2023/11/19 10:12:33;;;;;;;0.70;0.60;;;;;;;-0.81;100.00;100819.67;109083;1254;59385;-54
2023/11/19 10:15:00;;;;;;;1.70;0.70;;;;;;;-0.83;100.00;100813.11;108864;1254;58746;-53
2023/11/19 10:17:31;;;;;;;1.30;0.70;;;;;;;-0.82;100.00;100813.48;106649;1260;74411;-52
2023/11/19 10:19:59;;;;;;;1.80;0.50;;;;;;;-0.80;100.00;100813.70;104481;1264;67477;-54
2023/11/19 10:22:27;;;;;;;3.00;0.80;;;;;;;-0.79;100.00;100807.20;105519;1266;72126;-53
2023/11/19 10:24:55;;;;;;;1.10;0.70;;;;;;;-0.77;100.00;100801.94;105348;1254;60423;-53
2023/11/19 10:27:26;;;;;;;3.00;1.30;;;;;;;-0.73;100.00;100804.09;105239;1254;60313;-55
2023/11/19 10:29:54;;;;;;;1.30;0.80;;;;;;;-0.73;100.00;100801.43;104595;1259;72601;-52
2023/11/19 10:32:21;;;;;;;1.50;0.70;;;;;;;-0.77;100.00;100795.41;104669;1257;65678;-55
2023/11/19 10:35:06;;;;;;;1.20;0.70;;;;;;;-0.81;100.00;100791.46;104840;1261;73961;-55
2023/11/19 10:37:37;;;;;;;3.00;0.80;;;;;;;-0.81;100.00;100795.35;106156;1258;61317;-54
2023/11/19 10:40:05;;;;;;;0.90;0.70;;;;;;;-0.80;100.00;100784.27;106296;1254;60602;-56
2023/11/19 10:42:33;;;;;;;1.20;0.50;;;;;;;-0.80;100.00;100784.27;104893;1259;73464;-55
2023/11/19 10:45:00;;;;;;;0.90;0.60;;;;;;;-0.80;100.00;100773.86;104840;1262;68073;-56
2023/11/19 10:47:30;;;;;;;1.40;0.70;;;;;;;-0.82;100.00;100767.32;105070;1254;72713;-54
2023/11/19 10:50:01;;;;;;;1.30;0.70;;;;;;;-0.82;100.00;100767.84;106082;1260;60407;-57
2023/11/19 10:52:28;;;;;;;1.70;0.70;;;;;;;-0.80;100.00;100758.88;104905;1255;60852;-55
2023/11/19 10:54:56;;;;;;;0.90;0.60;;;;;;;-0.77;100.00;100757.34;104798;1260;72642;-54
2023/11/19 10:57:23;;;;;;;0.90;0.60;;;;;;;-0.74;100.00;100755.42;104738;1263;65990;-53
2023/11/19 10:59:55;;;;;;;1.10;0.70;;;;;;;-0.74;100.00;100753.83;104988;1257;72755;-55
2023/11/19 11:02:25;;;;;;;1.50;1.20;;;;;;;-0.78;100.00;100750.10;104881;1255;60533;-54
2023/11/19 11:04:52;;;;;;;1.20;0.80;;;;;;;-0.82;100.00;100745.98;104789;1256;60524;-56
2023/11/19 11:07:22;;;;;;;1.00;0.80;;;;;;;-0.83;100.00;100742.96;104840;1255;72640;-57
2023/11/19 11:10:06;;;;;;;3.70;0.80;;;;;;;-0.82;100.00;100741.77;105362;1261;65862;-54
2023/11/19 11:12:36;;;;;;;1.20;0.50;;;;;;;-0.79;100.00;100733.88;105275;1255;73232;-55
2023/11/19 11:15:05;;;;;;;1.20;0.70;;;;;;;-0.79;100.00;100728.23;104765;1262;60437;-52